Time,TemperatureF,DewpointF,PressureIn,WindDirection,WindDirectionDegrees,WindSpeedMPH,WindSpeedGustMPH,Humidity,HourlyPrecipIn,Conditions,Clouds,dailyrainin,SoftwareType,DateUTC
2013-03-06 00:00:00,20.7,9.6,25.31,North,0,0.0,0.0,62,0.00,,,0.00,WUHU21623XXSP,2013-03-06 07:00:00,
2013-03-06 00:05:00,20.5,9.5,25.31,North,0,0.0,0.0,62,0.00,,,0.00,WUHU21623XXSP,2013-03-06 07:05:00,
2013-03-06 00:10:00,20.3,9.3,25.31,North,0,0.0,0.0,62,0.00,,,0.00,WUHU21623XXSP,2013-03-06 07:10:00,
2013-03-06 00:15:00,20.1,9.1,25.31,North,0,0.0,0.0,62,0.00,,,0.00,WUHU21623XXSP,2013-03-06 07:15:00,
2013-03-06 00:20:00,20.3,9.3,25.31,North,0,0.0,0.0,62,0.00,,,0.00,WUHU21623XXSP,2013-03-06 07:20:00,
2013-03-06 00:25:00,20.1,9.1,25.31,North,0,0.0,0.0,62,0.00,,,0.00,WUHU21623XXSP,2013-03-06 07:25:00,
2013-03-06 00:30:00,20.1,9.1,25.31,North,0,0.0,0.0,62,0.00,,,0.00,WUHU21623XXSP,2013-03-06 07:30:00,
2013-03-06 00:35:00,19.9,8.9,25.31,North,0,0.0,0.0,62,0.00,,,0.00,WUHU21623XXSP,2013-03-06 07:35:00,
2013-03-06 00:40:00,19.9,9.3,25.31,North,0,0.0,0.0,63,0.00,,,0.00,WUHU21623XXSP,2013-03-06 07:40:00,
2013-03-06 00:45:00,19.8,9.1,25.31,North,0,0.0,0.0,63,0.00,,,0.00,WUHU21623XXSP,2013-03-06 07:45:00,
2013-03-06 00:50:00,19.8,9.1,25.31,North,0,0.0,0.0,63,0.00,,,0.00,WUHU21623XXSP,2013-03-06 07:50:00,
2013-03-06 00:55:00,19.8,9.1,25.30,North,0,0.0,0.0,63,0.00,,,0.00,WUHU21623XXSP,2013-03-06 07:55:00,
2013-03-06 01:00:00,19.6,9.2,25.30,North,0,0.0,0.0,64,0.00,,,0.00,WUHU21623XXSP,2013-03-06 08:00:00,
2013-03-06 01:05:00,19.6,9.2,25.31,North,0,0.0,0.0,64,0.00,,,0.00,WUHU21623XXSP,2013-03-06 08:05:00,
2013-03-06 01:10:00,19.6,9.2,25.31,North,0,0.0,0.0,64,0.00,,,0.00,WUHU21623XXSP,2013-03-06 08:10:00,
2013-03-06 01:15:00,19.6,9.2,25.30,North,0,0.0,0.0,64,0.00,,,0.00,WUHU21623XXSP,2013-03-06 08:15:00,
2013-03-06 01:20:00,19.6,9.2,25.30,North,0,0.0,0.0,64,0.00,,,0.00,WUHU21623XXSP,2013-03-06 08:20:00,
2013-03-06 01:25:00,19.6,9.2,25.30,North,0,0.0,0.0,64,0.00,,,0.00,WUHU21623XXSP,2013-03-06 08:25:00,
2013-03-06 01:30:00,19.4,9.4,25.30,North,0,0.0,0.0,65,0.00,,,0.00,WUHU21623XXSP,2013-03-06 08:30:00,
2013-03-06 01:35:00,19.4,9.4,25.30,North,0,0.0,0.0,65,0.00,,,0.00,WUHU21623XXSP,2013-03-06 08:35:00,
2013-03-06 01:40:00,19.4,9.4,25.30,North,0,0.0,0.0,65,0.00,,,0.00,WUHU21623XXSP,2013-03-06 08:40:00,
2013-03-06 01:45:00,19.6,9.6,25.30,North,0,0.0,0.0,65,0.00,,,0.00,WUHU21623XXSP,2013-03-06 08:45:00,
2013-03-06 01:50:00,19.2,9.2,25.30,North,0,0.0,0.0,65,0.00,,,0.00,WUHU21623XXSP,2013-03-06 08:50:00,
2013-03-06 01:55:00,19.2,9.2,25.29,North,0,0.0,0.0,65,0.00,,,0.00,WUHU21623XXSP,2013-03-06 08:55:00,
2013-03-06 02:00:00,19.0,9.1,25.29,North,0,0.0,0.0,65,0.00,,,0.00,WUHU21623XXSP,2013-03-06 09:00:00,
2013-03-06 02:05:00,19.0,9.1,25.29,North,0,0.0,0.0,65,0.00,,,0.00,WUHU21623XXSP,2013-03-06 09:05:00,
2013-03-06 02:10:00,18.9,8.9,25.29,North,0,0.0,0.0,65,0.00,,,0.00,WUHU21623XXSP,2013-03-06 09:10:00,
2013-03-06 02:15:00,18.9,8.9,25.28,North,0,0.0,0.0,65,0.00,,,0.00,WUHU21623XXSP,2013-03-06 09:15:00,
2013-03-06 02:20:00,18.9,8.9,25.28,North,0,0.0,0.0,65,0.00,,,0.00,WUHU21623XXSP,2013-03-06 09:20:00,
2013-03-06 02:25:00,18.9,8.9,25.28,North,0,0.0,0.0,65,0.00,,,0.00,WUHU21623XXSP,2013-03-06 09:25:00,
2013-03-06 02:30:00,18.9,8.9,25.28,North,0,0.0,0.0,65,0.00,,,0.00,WUHU21623XXSP,2013-03-06 09:30:00,
2013-03-06 02:35:00,18.9,8.9,25.27,North,0,0.0,0.0,65,0.00,,,0.00,WUHU21623XXSP,2013-03-06 09:35:00,
2013-03-06 02:40:00,18.9,8.9,25.27,North,0,0.0,0.0,65,0.00,,,0.00,WUHU21623XXSP,2013-03-06 09:40:00,
2013-03-06 02:45:00,18.7,8.8,25.27,North,0,0.0,0.0,65,0.00,,,0.00,WUHU21623XXSP,2013-03-06 09:45:00,
2013-03-06 02:50:00,18.9,8.9,25.27,North,0,0.0,0.0,65,0.00,,,0.00,WUHU21623XXSP,2013-03-06 09:50:00,
2013-03-06 02:55:00,18.7,9.1,25.27,North,0,0.0,0.0,66,0.00,,,0.00,WUHU21623XXSP,2013-03-06 09:55:00,
2013-03-06 03:00:00,18.7,9.1,25.26,North,0,0.0,0.0,66,0.00,,,0.00,WUHU21623XXSP,2013-03-06 10:00:00,
2013-03-06 03:05:00,18.7,9.1,25.26,North,0,0.0,0.0,66,0.00,,,0.00,WUHU21623XXSP,2013-03-06 10:05:00,
2013-03-06 03:10:00,18.7,9.1,25.26,North,0,0.0,0.0,66,0.00,,,0.00,WUHU21623XXSP,2013-03-06 10:10:00,
2013-03-06 03:15:00,18.5,8.9,25.26,North,0,0.0,0.0,66,0.00,,,0.00,WUHU21623XXSP,2013-03-06 10:15:00,
2013-03-06 03:20:00,18.5,8.9,25.26,North,0,0.0,0.0,66,0.00,,,0.00,WUHU21623XXSP,2013-03-06 10:20:00,
2013-03-06 03:25:00,18.3,8.8,25.26,North,0,0.0,0.0,66,0.00,,,0.00,WUHU21623XXSP,2013-03-06 10:25:00,
2013-03-06 03:30:00,18.3,8.8,25.26,North,0,0.0,0.0,66,0.00,,,0.00,WUHU21623XXSP,2013-03-06 10:30:00,
2013-03-06 03:35:00,18.3,8.8,25.26,North,0,0.0,0.0,66,0.00,,,0.00,WUHU21623XXSP,2013-03-06 10:35:00,
2013-03-06 03:40:00,18.1,8.6,25.25,North,0,0.0,0.0,66,0.00,,,0.00,WUHU21623XXSP,2013-03-06 10:40:00,
2013-03-06 03:45:00,18.1,8.6,25.25,North,0,0.0,0.0,66,0.00,,,0.00,WUHU21623XXSP,2013-03-06 10:45:00,
2013-03-06 03:50:00,18.0,8.5,25.26,North,0,0.0,0.0,66,0.00,,,0.00,WUHU21623XXSP,2013-03-06 10:50:00,
2013-03-06 03:55:00,17.8,8.3,25.25,North,0,0.0,0.0,66,0.00,,,0.00,WUHU21623XXSP,2013-03-06 10:55:00,
2013-03-06 04:00:00,17.8,8.3,25.26,North,0,0.0,0.0,66,0.00,,,0.00,WUHU21623XXSP,2013-03-06 11:00:00,
2013-03-06 04:05:00,17.8,8.3,25.26,North,0,0.0,0.0,66,0.00,,,0.00,WUHU21623XXSP,2013-03-06 11:05:00,
2013-03-06 04:10:00,17.8,8.3,25.26,North,0,0.0,0.0,66,0.00,,,0.00,WUHU21623XXSP,2013-03-06 11:10:00,
2013-03-06 04:15:00,17.8,8.3,25.25,North,0,0.0,0.0,66,0.00,,,0.00,WUHU21623XXSP,2013-03-06 11:15:00,
2013-03-06 04:20:00,17.6,8.5,25.26,North,0,0.0,0.0,67,0.00,,,0.00,WUHU21623XXSP,2013-03-06 11:20:00,
2013-03-06 04:25:00,17.6,8.5,25.25,North,0,0.0,0.0,67,0.00,,,0.00,WUHU21623XXSP,2013-03-06 11:25:00,
2013-03-06 04:30:00,17.8,8.6,25.25,North,0,0.0,0.0,67,0.00,,,0.00,WUHU21623XXSP,2013-03-06 11:30:00,
2013-03-06 04:35:00,17.4,8.3,25.25,North,0,0.0,0.0,67,0.00,,,0.00,WUHU21623XXSP,2013-03-06 11:35:00,
2013-03-06 04:40:00,17.2,8.1,25.25,North,0,0.0,0.0,67,0.00,,,0.00,WUHU21623XXSP,2013-03-06 11:40:00,
2013-03-06 04:45:00,17.2,8.1,25.25,North,0,0.0,0.0,67,0.00,,,0.00,WUHU21623XXSP,2013-03-06 11:45:00,
2013-03-06 04:50:00,17.1,7.9,25.25,North,0,0.0,0.0,67,0.00,,,0.00,WUHU21623XXSP,2013-03-06 11:50:00,
2013-03-06 04:55:00,17.1,7.9,25.25,North,0,0.0,0.0,67,0.00,,,0.00,WUHU21623XXSP,2013-03-06 11:55:00,
2013-03-06 05:00:00,17.1,7.9,25.25,North,0,0.0,0.0,67,0.00,,,0.00,WUHU21623XXSP,2013-03-06 12:00:00,
2013-03-06 05:05:00,16.9,7.8,25.25,North,0,0.0,0.0,67,0.00,,,0.00,WUHU21623XXSP,2013-03-06 12:05:00,
2013-03-06 05:10:00,16.9,7.8,25.25,North,0,0.0,0.0,67,0.00,,,0.00,WUHU21623XXSP,2013-03-06 12:10:00,
2013-03-06 05:15:00,16.7,7.6,25.25,North,0,0.0,0.0,67,0.00,,,0.00,WUHU21623XXSP,2013-03-06 12:15:00,
2013-03-06 05:20:00,16.7,7.6,25.25,North,0,0.0,0.0,67,0.00,,,0.00,WUHU21623XXSP,2013-03-06 12:20:00,
2013-03-06 05:25:00,16.7,7.6,25.25,North,0,0.0,0.0,67,0.00,,,0.00,WUHU21623XXSP,2013-03-06 12:25:00,
2013-03-06 05:30:00,16.7,7.6,25.24,North,0,0.0,0.0,67,0.00,,,0.00,WUHU21623XXSP,2013-03-06 12:30:00,
2013-03-06 05:35:00,16.7,7.6,25.24,North,0,0.0,0.0,67,0.00,,,0.00,WUHU21623XXSP,2013-03-06 12:35:00,
2013-03-06 05:40:00,16.7,7.6,25.24,North,0,0.0,0.0,67,0.00,,,0.00,WUHU21623XXSP,2013-03-06 12:40:00,
2013-03-06 05:45:00,16.5,7.4,25.24,North,0,0.0,0.0,67,0.00,,,0.00,WUHU21623XXSP,2013-03-06 12:45:00,
2013-03-06 05:50:00,16.5,7.4,25.24,North,0,0.0,0.0,67,0.00,,,0.00,WUHU21623XXSP,2013-03-06 12:50:00,
2013-03-06 05:55:00,16.5,7.4,25.24,North,0,0.0,0.0,67,0.00,,,0.00,WUHU21623XXSP,2013-03-06 12:55:00,
2013-03-06 06:00:00,16.5,7.4,25.24,North,0,0.0,0.0,67,0.00,,,0.00,WUHU21623XXSP,2013-03-06 13:00:00,
2013-03-06 06:05:00,16.5,7.7,25.24,North,0,0.0,0.0,68,0.00,,,0.00,WUHU21623XXSP,2013-03-06 13:05:00,
2013-03-06 06:10:00,16.3,7.6,25.24,North,0,0.0,0.0,68,0.00,,,0.00,WUHU21623XXSP,2013-03-06 13:10:00,
2013-03-06 06:15:00,16.2,7.4,25.24,North,0,0.0,0.0,68,0.00,,,0.00,WUHU21623XXSP,2013-03-06 13:15:00,
2013-03-06 06:20:00,16.3,7.6,25.24,North,0,0.0,0.0,68,0.00,,,0.00,WUHU21623XXSP,2013-03-06 13:20:00,
2013-03-06 06:25:00,16.3,7.6,25.23,North,0,0.0,0.0,68,0.00,,,0.00,WUHU21623XXSP,2013-03-06 13:25:00,
2013-03-06 06:30:00,16.3,7.6,25.23,North,0,0.0,0.0,68,0.00,,,0.00,WUHU21623XXSP,2013-03-06 13:30:00,
2013-03-06 06:35:00,16.3,7.6,25.24,North,0,0.0,0.0,68,0.00,,,0.00,WUHU21623XXSP,2013-03-06 13:35:00,
2013-03-06 06:40:00,16.2,7.4,25.24,North,0,0.0,0.0,68,0.00,,,0.00,WUHU21623XXSP,2013-03-06 13:40:00,
2013-03-06 06:45:00,16.3,7.6,25.23,North,0,0.0,0.0,68,0.00,,,0.00,WUHU21623XXSP,2013-03-06 13:45:00,
2013-03-06 06:50:00,16.5,8.1,25.24,North,0,0.0,0.0,69,0.00,,,0.00,WUHU21623XXSP,2013-03-06 13:50:00,
2013-03-06 06:55:00,16.7,8.3,25.24,North,0,0.0,0.0,69,0.00,,,0.00,WUHU21623XXSP,2013-03-06 13:55:00,
2013-03-06 07:00:00,16.9,8.4,25.23,North,0,0.0,0.0,69,0.00,,,0.00,WUHU21623XXSP,2013-03-06 14:00:00,
2013-03-06 07:05:00,17.2,9.1,25.23,North,0,0.0,0.0,70,0.00,,,0.00,WUHU21623XXSP,2013-03-06 14:05:00,
2013-03-06 07:10:00,17.8,9.7,25.23,North,0,0.0,0.0,70,0.00,,,0.00,WUHU21623XXSP,2013-03-06 14:10:00,
2013-03-06 07:15:00,18.3,10.4,25.23,North,0,0.0,0.0,71,0.00,,,0.00,WUHU21623XXSP,2013-03-06 14:15:00,
2013-03-06 07:20:00,18.7,10.8,25.23,North,0,0.0,0.0,71,0.00,,,0.00,WUHU21623XXSP,2013-03-06 14:20:00,
2013-03-06 07:25:00,19.4,11.7,25.23,North,0,0.0,0.0,72,0.00,,,0.00,WUHU21623XXSP,2013-03-06 14:25:00,
2013-03-06 07:30:00,20.5,12.8,25.23,North,0,0.0,0.0,72,0.00,,,0.00,WUHU21623XXSP,2013-03-06 14:30:00,
2013-03-06 07:35:00,21.4,14.0,25.23,North,0,0.0,0.0,73,0.00,,,0.00,WUHU21623XXSP,2013-03-06 14:35:00,
2013-03-06 07:40:00,22.3,14.9,25.23,North,0,0.0,0.0,73,0.00,,,0.00,WUHU21623XXSP,2013-03-06 14:40:00,
2013-03-06 07:45:00,23.7,16.6,25.23,North,0,0.0,0.0,74,0.00,,,0.00,WUHU21623XXSP,2013-03-06 14:45:00,
2013-03-06 07:50:00,24.6,17.1,25.23,North,0,0.0,0.0,73,0.00,,,0.00,WUHU21623XXSP,2013-03-06 14:50:00,
2013-03-06 07:55:00,25.9,18.0,25.23,North,0,0.0,0.0,72,0.00,,,0.00,WUHU21623XXSP,2013-03-06 14:55:00,
2013-03-06 08:00:00,26.8,18.6,25.23,North,0,0.0,0.0,71,0.00,,,0.00,WUHU21623XXSP,2013-03-06 15:00:00,
2013-03-06 08:05:00,27.5,19.3,25.23,North,0,0.0,0.0,71,0.00,,,0.00,WUHU21623XXSP,2013-03-06 15:05:00,
2013-03-06 08:10:00,28.9,20.4,25.23,North,0,0.0,0.0,70,0.00,,,0.00,WUHU21623XXSP,2013-03-06 15:10:00,
2013-03-06 08:15:00,30.0,21.0,25.23,North,0,0.0,0.0,69,0.00,,,0.00,WUHU21623XXSP,2013-03-06 15:15:00,
2013-03-06 08:20:00,30.9,21.2,25.23,North,0,0.0,0.0,67,0.00,,,0.00,WUHU21623XXSP,2013-03-06 15:20:00,
2013-03-06 08:25:00,32.2,21.7,25.23,North,0,0.0,0.0,65,0.00,,,0.00,WUHU21623XXSP,2013-03-06 15:25:00,
2013-03-06 08:30:00,32.7,21.5,25.23,North,0,0.0,0.0,63,0.00,,,0.00,WUHU21623XXSP,2013-03-06 15:30:00,
2013-03-06 08:35:00,32.9,21.3,25.23,North,0,0.0,0.0,62,0.00,,,0.00,WUHU21623XXSP,2013-03-06 15:35:00,
2013-03-06 08:40:00,33.3,20.9,25.23,North,0,0.0,0.0,60,0.00,,,0.00,WUHU21623XXSP,2013-03-06 15:40:00,
2013-03-06 08:45:00,33.3,20.0,25.23,North,0,0.0,0.0,58,0.00,,,0.00,WUHU21623XXSP,2013-03-06 15:45:00,
2013-03-06 08:50:00,32.9,19.3,25.23,North,0,0.0,0.0,57,0.00,,,0.00,WUHU21623XXSP,2013-03-06 15:50:00,
2013-03-06 08:55:00,32.7,18.7,25.23,North,0,0.0,0.0,56,0.00,,,0.00,WUHU21623XXSP,2013-03-06 15:55:00,
2013-03-06 09:00:00,32.9,18.8,25.23,North,0,0.0,0.0,56,0.00,,,0.00,WUHU21623XXSP,2013-03-06 16:00:00,
2013-03-06 09:05:00,33.3,19.6,25.23,North,0,0.0,0.0,57,0.00,,,0.00,WUHU21623XXSP,2013-03-06 16:05:00,
2013-03-06 09:10:00,33.6,19.9,25.23,North,0,0.0,0.0,57,0.00,,,0.00,WUHU21623XXSP,2013-03-06 16:10:00,
2013-03-06 09:15:00,34.2,20.0,25.22,North,0,0.0,0.0,56,0.00,,,0.00,WUHU21623XXSP,2013-03-06 16:15:00,
2013-03-06 09:20:00,35.1,20.9,25.22,North,0,0.0,0.0,56,0.00,,,0.00,WUHU21623XXSP,2013-03-06 16:20:00,
2013-03-06 09:25:00,36.5,21.8,25.23,North,0,0.0,0.0,55,0.00,,,0.00,WUHU21623XXSP,2013-03-06 16:25:00,
2013-03-06 09:30:00,37.4,22.2,25.22,North,0,0.0,0.0,54,0.00,,,0.00,WUHU21623XXSP,2013-03-06 16:30:00,
2013-03-06 09:35:00,37.8,21.7,25.22,North,0,0.0,0.0,52,0.00,,,0.00,WUHU21623XXSP,2013-03-06 16:35:00,
2013-03-06 09:40:00,37.9,21.0,25.22,North,0,0.0,0.0,50,0.00,,,0.00,WUHU21623XXSP,2013-03-06 16:40:00,
2013-03-06 09:45:00,38.1,21.1,25.21,North,0,0.0,0.0,50,0.00,,,0.00,WUHU21623XXSP,2013-03-06 16:45:00,
2013-03-06 09:50:00,38.3,20.8,25.21,North,0,0.0,0.0,49,0.00,,,0.00,WUHU21623XXSP,2013-03-06 16:50:00,
2013-03-06 09:55:00,39.2,20.5,25.21,North,0,0.0,0.0,47,0.00,,,0.00,WUHU21623XXSP,2013-03-06 16:55:00,
2013-03-06 10:00:00,39.6,20.9,25.21,North,0,0.0,0.0,47,0.00,,,0.00,WUHU21623XXSP,2013-03-06 17:00:00,
2013-03-06 10:05:00,40.3,21.0,25.21,North,0,0.0,0.0,46,0.00,,,0.00,WUHU21623XXSP,2013-03-06 17:05:00,
2013-03-06 10:10:00,41.2,21.3,25.21,North,0,0.0,0.0,45,0.00,,,0.00,WUHU21623XXSP,2013-03-06 17:10:00,
2013-03-06 10:15:00,42.3,21.8,25.21,North,0,0.0,0.0,44,0.00,,,0.00,WUHU21623XXSP,2013-03-06 17:15:00,
2013-03-06 10:20:00,42.8,21.2,25.21,North,0,0.0,0.0,42,0.00,,,0.00,WUHU21623XXSP,2013-03-06 17:20:00,
2013-03-06 10:25:00,43.7,20.9,25.21,North,0,0.0,0.0,40,0.00,,,0.00,WUHU21623XXSP,2013-03-06 17:25:00,
2013-03-06 10:30:00,44.1,20.6,25.21,North,0,0.0,0.0,39,0.00,,,0.00,WUHU21623XXSP,2013-03-06 17:30:00,
2013-03-06 10:35:00,44.4,21.6,25.21,North,0,0.0,0.0,40,0.00,,,0.00,WUHU21623XXSP,2013-03-06 17:35:00,
2013-03-06 10:40:00,45.0,22.1,25.20,North,0,0.0,0.0,40,0.00,,,0.00,WUHU21623XXSP,2013-03-06 17:40:00,
2013-03-06 10:45:00,45.5,21.9,25.20,North,0,0.0,0.0,39,0.00,,,0.00,WUHU21623XXSP,2013-03-06 17:45:00,
2013-03-06 10:50:00,46.2,21.9,25.20,North,0,0.0,0.0,38,0.00,,,0.00,WUHU21623XXSP,2013-03-06 17:50:00,
2013-03-06 10:55:00,46.9,22.5,25.20,North,0,0.0,0.0,38,0.00,,,0.00,WUHU21623XXSP,2013-03-06 17:55:00,
2013-03-06 11:00:00,47.3,21.5,25.20,North,0,0.0,0.0,36,0.00,,,0.00,WUHU21623XXSP,2013-03-06 18:00:00,
2013-03-06 11:05:00,48.0,21.5,25.20,North,0,0.0,0.0,35,0.00,,,0.00,WUHU21623XXSP,2013-03-06 18:05:00,
2013-03-06 11:10:00,48.4,21.1,25.19,North,0,0.0,0.0,34,0.00,,,0.00,WUHU21623XXSP,2013-03-06 18:10:00,
2013-03-06 11:15:00,48.9,21.6,25.19,North,0,0.0,0.0,34,0.00,,,0.00,WUHU21623XXSP,2013-03-06 18:15:00,
2013-03-06 11:20:00,49.6,22.2,25.19,North,0,0.0,0.0,34,0.00,,,0.00,WUHU21623XXSP,2013-03-06 18:20:00,
2013-03-06 11:25:00,50.4,22.1,25.18,North,0,0.0,0.0,33,0.00,,,0.00,WUHU21623XXSP,2013-03-06 18:25:00,
2013-03-06 11:30:00,50.7,21.8,25.19,North,0,0.0,0.0,32,0.00,,,0.00,WUHU21623XXSP,2013-03-06 18:30:00,
2013-03-06 11:35:00,51.8,21.4,25.18,North,0,0.0,0.0,30,0.00,,,0.00,WUHU21623XXSP,2013-03-06 18:35:00,
2013-03-06 11:41:00,52.2,20.8,25.18,North,0,0.0,0.0,29,0.00,,,0.00,WUHU21623XXSP,2013-03-06 18:41:00,
2013-03-06 11:46:00,52.3,20.9,25.18,North,0,0.0,0.0,29,0.00,,,0.00,WUHU21623XXSP,2013-03-06 18:46:00,
2013-03-06 11:51:00,53.2,20.8,25.17,North,0,0.0,0.0,28,0.00,,,0.00,WUHU21623XXSP,2013-03-06 18:51:00,
2013-03-06 11:56:00,53.6,21.1,25.18,North,0,0.0,0.0,28,0.00,,,0.00,WUHU21623XXSP,2013-03-06 18:56:00,
2013-03-06 12:01:00,53.8,21.2,25.17,North,0,0.0,0.0,28,0.00,,,0.00,WUHU21623XXSP,2013-03-06 19:01:00,
2013-03-06 12:06:00,54.3,21.7,25.17,North,0,0.0,0.0,28,0.00,,,0.00,WUHU21623XXSP,2013-03-06 19:06:00,
2013-03-06 12:11:00,54.5,19.9,25.17,North,0,0.0,0.0,26,0.00,,,0.00,WUHU21623XXSP,2013-03-06 19:11:00,
2013-03-06 12:16:00,55.2,20.5,25.17,North,0,0.0,0.0,26,0.00,,,0.00,WUHU21623XXSP,2013-03-06 19:16:00,
2013-03-06 12:21:00,55.4,20.7,25.16,North,0,0.0,0.0,26,0.00,,,0.00,WUHU21623XXSP,2013-03-06 19:21:00,
2013-03-06 12:26:00,55.6,20.8,25.16,North,0,0.0,0.0,26,0.00,,,0.00,WUHU21623XXSP,2013-03-06 19:26:00,
2013-03-06 12:31:00,55.6,19.0,25.15,North,0,0.0,0.0,24,0.00,,,0.00,WUHU21623XXSP,2013-03-06 19:31:00,
2013-03-06 12:36:00,55.6,19.0,25.15,North,0,0.0,0.0,24,0.00,,,0.00,WUHU21623XXSP,2013-03-06 19:36:00,
2013-03-06 12:41:00,55.6,18.0,25.15,North,0,0.0,0.0,23,0.00,,,0.00,WUHU21623XXSP,2013-03-06 19:41:00,
2013-03-06 12:46:00,55.6,16.2,25.15,North,0,0.0,0.0,21,0.00,,,0.00,WUHU21623XXSP,2013-03-06 19:46:00,
2013-03-06 12:51:00,55.8,15.4,25.15,North,0,0.0,0.0,20,0.00,,,0.00,WUHU21623XXSP,2013-03-06 19:51:00,
2013-03-06 12:56:00,56.1,15.7,25.15,North,0,0.0,0.0,20,0.00,,,0.00,WUHU21623XXSP,2013-03-06 19:56:00,
2013-03-06 13:01:00,56.3,14.5,25.14,North,0,0.0,0.0,19,0.00,,,0.00,WUHU21623XXSP,2013-03-06 20:01:00,
2013-03-06 13:06:00,56.8,14.9,25.14,North,0,0.0,0.0,19,0.00,,,0.00,WUHU21623XXSP,2013-03-06 20:06:00,
2013-03-06 13:11:00,56.8,14.9,25.14,North,0,0.0,0.0,19,0.00,,,0.00,WUHU21623XXSP,2013-03-06 20:11:00,
2013-03-06 13:16:00,57.4,15.4,25.13,North,0,0.0,0.0,19,0.00,,,0.00,WUHU21623XXSP,2013-03-06 20:16:00,
2013-03-06 13:20:00,57.4,15.4,25.13,North,0,0.0,0.0,19,0.00,,,0.00,WUHU21623XXSP,2013-03-06 20:20:00,
2013-03-06 13:25:00,57.6,15.6,25.12,North,0,0.0,0.0,19,0.00,,,0.00,WUHU21623XXSP,2013-03-06 20:25:00,
2013-03-06 13:30:00,57.9,15.8,25.12,North,0,0.0,0.0,19,0.00,,,0.00,WUHU21623XXSP,2013-03-06 20:30:00,
2013-03-06 13:36:00,57.9,15.8,25.12,North,0,0.0,0.0,19,0.00,,,0.00,WUHU21623XXSP,2013-03-06 20:36:00,
2013-03-06 13:41:00,58.1,16.0,25.12,North,0,0.0,0.0,19,0.00,,,0.00,WUHU21623XXSP,2013-03-06 20:41:00,
2013-03-06 13:45:00,58.1,16.0,25.12,North,0,0.0,0.0,19,0.00,,,0.00,WUHU21623XXSP,2013-03-06 20:45:00,
2013-03-06 13:50:00,58.1,16.0,25.12,North,0,0.0,0.0,19,0.00,,,0.00,WUHU21623XXSP,2013-03-06 20:50:00,
2013-03-06 13:55:00,58.3,16.1,25.12,North,0,0.0,0.0,19,0.00,,,0.00,WUHU21623XXSP,2013-03-06 20:55:00,
2013-03-06 14:00:00,58.3,16.1,25.12,North,0,0.0,0.0,19,0.00,,,0.00,WUHU21623XXSP,2013-03-06 21:00:00,
2013-03-06 14:05:00,58.3,16.1,25.12,North,0,0.0,0.0,19,0.00,,,0.00,WUHU21623XXSP,2013-03-06 21:05:00,
2013-03-06 14:10:00,58.1,16.0,25.12,North,0,0.0,0.0,19,0.00,,,0.00,WUHU21623XXSP,2013-03-06 21:10:00,
2013-03-06 14:15:00,58.1,16.0,25.11,North,0,0.0,0.0,19,0.00,,,0.00,WUHU21623XXSP,2013-03-06 21:15:00,
2013-03-06 14:20:00,58.3,16.1,25.11,North,0,0.0,0.0,19,0.00,,,0.00,WUHU21623XXSP,2013-03-06 21:20:00,
2013-03-06 14:25:00,58.3,16.1,25.11,North,0,0.0,0.0,19,0.00,,,0.00,WUHU21623XXSP,2013-03-06 21:25:00,
2013-03-06 14:30:00,58.3,16.1,25.11,North,0,0.0,0.0,19,0.00,,,0.00,WUHU21623XXSP,2013-03-06 21:30:00,
2013-03-06 14:35:00,58.5,16.3,25.10,North,0,0.0,0.0,19,0.00,,,0.00,WUHU21623XXSP,2013-03-06 21:35:00,
2013-03-06 14:40:00,58.3,16.1,25.10,North,0,0.0,0.0,19,0.00,,,0.00,WUHU21623XXSP,2013-03-06 21:40:00,
2013-03-06 14:45:00,58.5,16.3,25.10,North,0,0.0,0.0,19,0.00,,,0.00,WUHU21623XXSP,2013-03-06 21:45:00,
2013-03-06 14:50:00,58.5,16.3,25.09,North,0,0.0,0.0,19,0.00,,,0.00,WUHU21623XXSP,2013-03-06 21:50:00,
2013-03-06 14:55:00,58.5,16.3,25.09,North,0,0.0,0.0,19,0.00,,,0.00,WUHU21623XXSP,2013-03-06 21:55:00,
2013-03-06 15:00:00,58.5,16.3,25.09,North,0,0.0,0.0,19,0.00,,,0.00,WUHU21623XXSP,2013-03-06 22:00:00,
2013-03-06 15:05:00,58.5,16.3,25.10,North,0,0.0,0.0,19,0.00,,,0.00,WUHU21623XXSP,2013-03-06 22:05:00,
2013-03-06 15:10:00,58.6,16.4,25.10,North,0,0.0,0.0,19,0.00,,,0.00,WUHU21623XXSP,2013-03-06 22:10:00,
2013-03-06 15:15:00,58.3,16.1,25.09,North,0,0.0,0.0,19,0.00,,,0.00,WUHU21623XXSP,2013-03-06 22:15:00,
2013-03-06 15:20:00,57.9,15.8,25.09,North,0,0.0,0.0,19,0.00,,,0.00,WUHU21623XXSP,2013-03-06 22:20:00,
2013-03-06 15:25:00,57.9,15.8,25.09,North,0,0.0,0.0,19,0.00,,,0.00,WUHU21623XXSP,2013-03-06 22:25:00,
2013-03-06 15:30:00,57.7,15.6,25.09,North,0,0.0,0.0,19,0.00,,,0.00,WUHU21623XXSP,2013-03-06 22:30:00,
2013-03-06 15:35:00,57.9,15.8,25.09,North,0,0.0,0.0,19,0.00,,,0.00,WUHU21623XXSP,2013-03-06 22:35:00,
2013-03-06 15:41:00,58.3,16.1,25.08,North,0,0.0,0.0,19,0.00,,,0.00,WUHU21623XXSP,2013-03-06 22:41:00,
2013-03-06 15:45:00,58.5,16.3,25.08,North,0,0.0,0.0,19,0.00,,,0.00,WUHU21623XXSP,2013-03-06 22:45:00,
2013-03-06 15:50:00,58.6,16.4,25.08,North,0,0.0,0.0,19,0.00,,,0.00,WUHU21623XXSP,2013-03-06 22:50:00,
2013-03-06 15:55:00,58.5,16.3,25.08,North,0,0.0,0.0,19,0.00,,,0.00,WUHU21623XXSP,2013-03-06 22:55:00,
2013-03-06 16:00:00,58.3,16.1,25.08,North,0,0.0,0.0,19,0.00,,,0.00,WUHU21623XXSP,2013-03-06 23:00:00,
2013-03-06 16:05:00,58.1,16.0,25.08,North,0,0.0,0.0,19,0.00,,,0.00,WUHU21623XXSP,2013-03-06 23:05:00,
2013-03-06 16:10:00,57.6,15.6,25.08,North,0,0.0,0.0,19,0.00,,,0.00,WUHU21623XXSP,2013-03-06 23:10:00,
2013-03-06 16:15:00,56.8,14.9,25.08,North,0,0.0,0.0,19,0.00,,,0.00,WUHU21623XXSP,2013-03-06 23:15:00,
2013-03-06 16:20:00,56.8,14.9,25.08,North,0,0.0,0.0,19,0.00,,,0.00,WUHU21623XXSP,2013-03-06 23:20:00,
2013-03-06 16:25:00,56.7,14.8,25.08,North,0,0.0,0.0,19,0.00,,,0.00,WUHU21623XXSP,2013-03-06 23:25:00,
2013-03-06 16:30:00,56.3,14.5,25.08,North,0,0.0,0.0,19,0.00,,,0.00,WUHU21623XXSP,2013-03-06 23:30:00,
2013-03-06 16:35:00,56.1,14.3,25.07,North,0,0.0,0.0,19,0.00,,,0.00,WUHU21623XXSP,2013-03-06 23:35:00,
2013-03-06 16:40:00,55.8,14.1,25.08,North,0,0.0,0.0,19,0.00,,,0.00,WUHU21623XXSP,2013-03-06 23:40:00,
2013-03-06 16:45:00,55.6,13.9,25.07,North,0,0.0,0.0,19,0.00,,,0.00,WUHU21623XXSP,2013-03-06 23:45:00,
2013-03-06 16:50:00,55.6,13.9,25.07,North,0,0.0,0.0,19,0.00,,,0.00,WUHU21623XXSP,2013-03-06 23:50:00,
2013-03-06 16:55:00,55.6,13.9,25.08,North,0,0.0,0.0,19,0.00,,,0.00,WUHU21623XXSP,2013-03-06 23:55:00,
2013-03-06 17:00:00,55.2,13.6,25.08,North,0,0.0,0.0,19,0.00,,,0.00,WUHU21623XXSP,2013-03-07 00:00:00,
2013-03-06 17:05:00,55.2,13.6,25.08,North,0,0.0,0.0,19,0.00,,,0.00,WUHU21623XXSP,2013-03-07 00:05:00,
2013-03-06 17:10:00,55.0,13.4,25.08,North,0,0.0,0.0,19,0.00,,,0.00,WUHU21623XXSP,2013-03-07 00:10:00,
2013-03-06 17:16:00,54.9,13.3,25.07,North,0,0.0,0.0,19,0.00,,,0.00,WUHU21623XXSP,2013-03-07 00:16:00,
2013-03-06 17:20:00,54.5,13.0,25.07,North,0,0.0,0.0,19,0.00,,,0.00,WUHU21623XXSP,2013-03-07 00:20:00,
2013-03-06 17:25:00,54.1,12.7,25.08,North,0,0.0,0.0,19,0.00,,,0.00,WUHU21623XXSP,2013-03-07 00:25:00,
2013-03-06 17:30:00,54.0,12.6,25.07,North,0,0.0,0.0,19,0.00,,,0.00,WUHU21623XXSP,2013-03-07 00:30:00,
2013-03-06 17:35:00,53.4,12.1,25.07,North,0,0.0,0.0,19,0.00,,,0.00,WUHU21623XXSP,2013-03-07 00:35:00,
2013-03-06 17:40:00,53.1,11.8,25.07,North,0,0.0,0.0,19,0.00,,,0.00,WUHU21623XXSP,2013-03-07 00:40:00,
2013-03-06 17:45:00,52.7,11.5,25.07,North,0,0.0,0.0,19,0.00,,,0.00,WUHU21623XXSP,2013-03-07 00:45:00,
2013-03-06 17:50:00,52.3,11.2,25.08,North,0,0.0,0.0,19,0.00,,,0.00,WUHU21623XXSP,2013-03-07 00:50:00,
2013-03-06 17:55:00,52.0,10.9,25.08,North,0,0.0,0.0,19,0.00,,,0.00,WUHU21623XXSP,2013-03-07 00:55:00,
2013-03-06 18:01:00,51.4,10.4,25.07,North,0,0.0,0.0,19,0.00,,,0.00,WUHU21623XXSP,2013-03-07 01:01:00,
2013-03-06 18:06:00,50.7,9.9,25.08,North,0,0.0,0.0,19,0.00,,,0.00,WUHU21623XXSP,2013-03-07 01:06:00,
2013-03-06 18:10:00,50.2,9.4,25.08,North,0,0.0,0.0,19,0.00,,,0.00,WUHU21623XXSP,2013-03-07 01:10:00,
2013-03-06 18:15:00,49.6,8.9,25.08,North,0,0.0,0.0,19,0.00,,,0.00,WUHU21623XXSP,2013-03-07 01:15:00,
2013-03-06 18:21:00,48.6,8.1,25.08,North,0,0.0,0.0,19,0.00,,,0.00,WUHU21623XXSP,2013-03-07 01:21:00,
2013-03-06 18:25:00,47.8,7.5,25.09,North,0,0.0,0.0,19,0.00,,,0.00,WUHU21623XXSP,2013-03-07 01:25:00,
2013-03-06 18:31:00,47.3,7.0,25.09,North,0,0.0,0.0,19,0.00,,,0.00,WUHU21623XXSP,2013-03-07 01:31:00,
2013-03-06 18:36:00,46.6,6.5,25.09,North,0,0.0,0.0,19,0.00,,,0.00,WUHU21623XXSP,2013-03-07 01:36:00,
2013-03-06 18:40:00,45.9,5.9,25.09,North,0,0.0,0.0,19,0.00,,,0.00,WUHU21623XXSP,2013-03-07 01:40:00,
2013-03-06 18:45:00,45.5,5.6,25.09,North,0,0.0,0.0,19,0.00,,,0.00,WUHU21623XXSP,2013-03-07 01:45:00,
2013-03-06 18:50:00,44.8,5.0,25.08,North,0,0.0,0.0,19,0.00,,,0.00,WUHU21623XXSP,2013-03-07 01:50:00,
2013-03-06 18:55:00,44.2,4.5,25.09,North,0,0.0,0.0,19,0.00,,,0.00,WUHU21623XXSP,2013-03-07 01:55:00,
2013-03-06 19:00:00,43.7,4.1,25.09,North,0,0.0,0.0,19,0.00,,,0.00,WUHU21623XXSP,2013-03-07 02:00:00,
2013-03-06 19:05:00,43.2,3.6,25.08,North,0,0.0,0.0,19,0.00,,,0.00,WUHU21623XXSP,2013-03-07 02:05:00,
2013-03-06 19:10:00,43.0,12.7,25.08,North,0,0.0,0.0,29,0.00,,,0.00,WUHU21623XXSP,2013-03-07 02:10:00,
2013-03-06 19:15:00,42.4,13.8,25.08,North,0,0.0,0.0,31,0.00,,,0.00,WUHU21623XXSP,2013-03-07 02:15:00,
2013-03-06 19:20:00,41.9,14.7,25.08,North,0,0.0,0.0,33,0.00,,,0.00,WUHU21623XXSP,2013-03-07 02:20:00,
2013-03-06 19:25:00,41.5,15.7,25.08,North,0,0.0,0.0,35,0.00,,,0.00,WUHU21623XXSP,2013-03-07 02:25:00,
2013-03-06 19:30:00,41.2,16.1,25.08,North,0,0.0,0.0,36,0.00,,,0.00,WUHU21623XXSP,2013-03-07 02:30:00,
2013-03-06 19:35:00,40.6,16.2,25.08,North,0,0.0,0.0,37,0.00,,,0.00,WUHU21623XXSP,2013-03-07 02:35:00,
2013-03-06 19:40:00,40.1,16.4,25.09,North,0,0.0,0.0,38,0.00,,,0.00,WUHU21623XXSP,2013-03-07 02:40:00,
2013-03-06 19:45:00,40.1,17.7,25.09,North,0,0.0,0.0,40,0.00,,,0.00,WUHU21623XXSP,2013-03-07 02:45:00,
2013-03-06 19:50:00,39.6,17.7,25.09,North,0,0.0,0.0,41,0.00,,,0.00,WUHU21623XXSP,2013-03-07 02:50:00,
2013-03-06 19:55:00,39.4,18.1,25.08,North,0,0.0,0.0,42,0.00,,,0.00,WUHU21623XXSP,2013-03-07 02:55:00,
2013-03-06 20:00:00,38.8,17.1,25.09,North,0,0.0,0.0,41,0.00,,,0.00,WUHU21623XXSP,2013-03-07 03:00:00,
2013-03-06 20:05:00,38.7,17.4,25.09,North,0,0.0,0.0,42,0.00,,,0.00,WUHU21623XXSP,2013-03-07 03:05:00,
2013-03-06 20:10:00,38.3,17.1,25.09,North,0,0.0,0.0,42,0.00,,,0.00,WUHU21623XXSP,2013-03-07 03:10:00,
2013-03-06 20:15:00,37.9,17.3,25.08,North,0,0.0,0.0,43,0.00,,,0.00,WUHU21623XXSP,2013-03-07 03:15:00,
2013-03-06 20:20:00,37.8,17.7,25.08,North,0,0.0,0.0,44,0.00,,,0.00,WUHU21623XXSP,2013-03-07 03:20:00,
2013-03-06 20:25:00,37.6,18.0,25.09,North,0,0.0,0.0,45,0.00,,,0.00,WUHU21623XXSP,2013-03-07 03:25:00,
2013-03-06 20:30:00,37.2,17.7,25.09,North,0,0.0,0.0,45,0.00,,,0.00,WUHU21623XXSP,2013-03-07 03:30:00,
2013-03-06 20:35:00,37.0,17.5,25.09,North,0,0.0,0.0,45,0.00,,,0.00,WUHU21623XXSP,2013-03-07 03:35:00,
2013-03-06 20:40:00,36.9,17.4,25.08,North,0,0.0,0.0,45,0.00,,,0.00,WUHU21623XXSP,2013-03-07 03:40:00,
2013-03-06 20:45:00,36.5,17.6,25.09,North,0,0.0,0.0,46,0.00,,,0.00,WUHU21623XXSP,2013-03-07 03:45:00,
2013-03-06 20:50:00,36.3,17.4,25.09,North,0,0.0,0.0,46,0.00,,,0.00,WUHU21623XXSP,2013-03-07 03:50:00,
2013-03-06 20:55:00,36.3,17.4,25.09,North,0,0.0,0.0,46,0.00,,,0.00,WUHU21623XXSP,2013-03-07 03:55:00,
2013-03-06 21:00:00,36.1,17.8,25.09,North,0,0.0,0.0,47,0.00,,,0.00,WUHU21623XXSP,2013-03-07 04:00:00,
2013-03-06 21:05:00,36.0,17.6,25.09,North,0,0.0,0.0,47,0.00,,,0.00,WUHU21623XXSP,2013-03-07 04:05:00,
2013-03-06 21:10:00,35.8,17.5,25.09,North,0,0.0,0.0,47,0.00,,,0.00,WUHU21623XXSP,2013-03-07 04:10:00,
2013-03-06 21:15:00,35.4,17.6,25.09,North,0,0.0,0.0,48,0.00,,,0.00,WUHU21623XXSP,2013-03-07 04:15:00,
2013-03-06 21:20:00,35.2,17.5,25.08,North,0,0.0,0.0,48,0.00,,,0.00,WUHU21623XXSP,2013-03-07 04:20:00,
2013-03-06 21:25:00,35.1,17.3,25.09,North,0,0.0,0.0,48,0.00,,,0.00,WUHU21623XXSP,2013-03-07 04:25:00,
2013-03-06 21:30:00,34.7,18.0,25.09,North,0,0.0,0.0,50,0.00,,,0.00,WUHU21623XXSP,2013-03-07 04:30:00,
2013-03-06 21:35:00,34.7,18.0,25.09,North,0,0.0,0.0,50,0.00,,,0.00,WUHU21623XXSP,2013-03-07 04:35:00,
2013-03-06 21:40:00,34.5,17.8,25.09,North,0,0.0,0.0,50,0.00,,,0.00,WUHU21623XXSP,2013-03-07 04:40:00,
2013-03-06 21:45:00,34.2,17.4,25.09,North,0,0.0,0.0,50,0.00,,,0.00,WUHU21623XXSP,2013-03-07 04:45:00,
2013-03-06 21:50:00,34.0,17.7,25.09,North,0,0.0,0.0,51,0.00,,,0.00,WUHU21623XXSP,2013-03-07 04:50:00,
2013-03-06 21:55:00,33.8,17.5,25.09,North,0,0.0,0.0,51,0.00,,,0.00,WUHU21623XXSP,2013-03-07 04:55:00,
2013-03-06 22:00:00,33.4,17.2,25.09,North,0,0.0,0.0,51,0.00,,,0.00,WUHU21623XXSP,2013-03-07 05:00:00,
2013-03-06 22:05:00,33.1,16.8,25.09,North,0,0.0,0.0,51,0.00,,,0.00,WUHU21623XXSP,2013-03-07 05:05:00,
2013-03-06 22:10:00,32.9,17.1,25.09,North,0,0.0,0.0,52,0.00,,,0.00,WUHU21623XXSP,2013-03-07 05:10:00,
2013-03-06 22:15:00,32.7,17.0,25.09,North,0,0.0,0.0,52,0.00,,,0.00,WUHU21623XXSP,2013-03-07 05:15:00,
2013-03-06 22:20:00,32.5,16.8,25.08,North,0,0.0,0.0,52,0.00,,,0.00,WUHU21623XXSP,2013-03-07 05:20:00,
2013-03-06 22:25:00,32.5,17.2,25.08,North,0,0.0,0.0,53,0.00,,,0.00,WUHU21623XXSP,2013-03-07 05:25:00,
2013-03-06 22:30:00,32.4,17.1,25.09,North,0,0.0,0.0,53,0.00,,,0.00,WUHU21623XXSP,2013-03-07 05:30:00,
2013-03-06 22:35:00,32.5,18.1,25.08,North,0,0.0,0.0,55,0.00,,,0.00,WUHU21623XXSP,2013-03-07 05:35:00,
2013-03-06 22:40:00,32.5,18.1,25.09,North,0,0.0,0.0,55,0.00,,,0.00,WUHU21623XXSP,2013-03-07 05:40:00,
2013-03-06 22:45:00,32.5,18.1,25.08,North,0,0.0,0.0,55,0.00,,,0.00,WUHU21623XXSP,2013-03-07 05:45:00,
2013-03-06 22:50:00,32.5,17.7,25.09,North,0,0.0,0.0,54,0.00,,,0.00,WUHU21623XXSP,2013-03-07 05:50:00,
2013-03-06 22:55:00,32.4,17.5,25.09,North,0,0.0,0.0,54,0.00,,,0.00,WUHU21623XXSP,2013-03-07 05:55:00,
2013-03-06 23:00:00,32.4,17.1,25.09,North,0,0.0,0.0,53,0.00,,,0.00,WUHU21623XXSP,2013-03-07 06:00:00,
2013-03-06 23:05:00,32.2,16.9,25.09,North,0,0.0,0.0,53,0.00,,,0.00,WUHU21623XXSP,2013-03-07 06:05:00,
2013-03-06 23:10:00,32.2,16.9,25.08,North,0,0.0,0.0,53,0.00,,,0.00,WUHU21623XXSP,2013-03-07 06:10:00,
2013-03-06 23:15:00,32.2,16.9,25.09,North,0,0.0,0.0,53,0.00,,,0.00,WUHU21623XXSP,2013-03-07 06:15:00,
2013-03-06 23:20:00,32.2,17.3,25.09,North,0,0.0,0.0,54,0.00,,,0.00,WUHU21623XXSP,2013-03-07 06:20:00,
2013-03-06 23:25:00,32.2,17.3,25.09,North,0,0.0,0.0,54,0.00,,,0.00,WUHU21623XXSP,2013-03-07 06:25:00,
2013-03-06 23:30:00,31.6,16.4,25.10,North,0,0.0,0.0,53,0.00,,,0.00,WUHU21623XXSP,2013-03-07 06:30:00,
2013-03-06 23:35:00,31.6,16.8,25.09,North,0,0.0,0.0,54,0.00,,,0.00,WUHU21623XXSP,2013-03-07 06:35:00,
2013-03-06 23:40:00,31.5,16.6,25.10,North,0,0.0,0.0,54,0.00,,,0.00,WUHU21623XXSP,2013-03-07 06:40:00,
2013-03-06 23:45:00,31.3,16.5,25.09,North,0,0.0,0.0,54,0.00,,,0.00,WUHU21623XXSP,2013-03-07 06:45:00,
2013-03-06 23:50:00,31.1,16.3,25.10,North,0,0.0,0.0,54,0.00,,,0.00,WUHU21623XXSP,2013-03-07 06:50:00,
2013-03-06 23:55:00,31.1,16.3,25.09,North,0,0.0,0.0,54,0.00,,,0.00,WUHU21623XXSP,2013-03-07 06:55:00,